createdAt,value
2023-07-10T00:02:01.850Z,9.27
2023-07-10T00:04:28.308Z,9.02
2023-07-10T00:06:54.784Z,11.70
2023-07-10T00:09:21.246Z,8.90
2023-07-10T00:11:47.679Z,7.82
2023-07-10T00:14:14.205Z,7.05
2023-07-10T00:16:40.693Z,7.60
2023-07-10T00:19:07.215Z,9.70
2023-07-10T00:21:33.687Z,8.63
2023-07-10T00:24:00.096Z,8.07
2023-07-10T00:26:26.569Z,6.95
2023-07-10T00:28:53.037Z,9.68
2023-07-10T00:31:19.506Z,8.68
2023-07-10T00:33:46.013Z,9.60
2023-07-10T00:36:12.498Z,10.35
2023-07-10T00:38:39.003Z,8.15
2023-07-10T00:41:05.456Z,9.50
2023-07-10T00:43:31.920Z,7.13
2023-07-10T00:45:58.387Z,9.05
2023-07-10T00:48:24.835Z,9.25
2023-07-10T00:50:51.287Z,13.52
2023-07-10T00:53:17.702Z,10.57
2023-07-10T00:55:44.120Z,12.80
2023-07-10T00:58:20.082Z,10.25
2023-07-10T01:00:54.905Z,11.52
2023-07-10T01:03:21.492Z,11.90
2023-07-10T01:05:47.988Z,13.25
2023-07-10T01:08:14.459Z,10.00
2023-07-10T01:10:40.913Z,9.40
2023-07-10T01:13:07.362Z,13.02
2023-07-10T01:15:33.825Z,8.55
2023-07-10T01:18:00.338Z,9.35
2023-07-10T01:20:26.895Z,7.75
2023-07-10T01:22:53.341Z,9.40
2023-07-10T01:25:19.799Z,10.50
2023-07-10T01:27:46.307Z,11.73
2023-07-10T01:30:12.761Z,9.65
2023-07-10T01:32:39.214Z,10.27
2023-07-10T01:35:05.697Z,10.52
2023-07-10T01:37:32.161Z,11.55
2023-07-10T01:39:58.642Z,9.35
2023-07-10T01:42:25.121Z,9.73
2023-07-10T01:44:51.613Z,8.82
2023-07-10T01:47:18.213Z,8.27
2023-07-10T01:49:44.781Z,8.50
2023-07-10T01:52:11.244Z,8.07
2023-07-10T01:54:37.761Z,6.60
2023-07-10T01:57:04.209Z,7.63
2023-07-10T01:59:30.700Z,9.38
2023-07-10T02:01:57.190Z,9.45
2023-07-10T02:04:23.679Z,8.68
2023-07-10T02:06:50.109Z,10.05
2023-07-10T02:09:16.611Z,8.60
2023-07-10T02:11:43.081Z,7.20
2023-07-10T02:14:09.734Z,7.38
2023-07-10T02:16:36.323Z,9.68
2023-07-10T02:19:02.974Z,6.57
2023-07-10T02:21:29.408Z,7.93
2023-07-10T02:23:55.892Z,8.00
2023-07-10T02:26:24.514Z,8.23
2023-07-10T02:28:51.192Z,8.65
2023-07-10T02:31:17.636Z,6.43
2023-07-10T02:33:44.111Z,7.95
2023-07-10T02:36:10.543Z,7.20
2023-07-10T02:38:37.013Z,6.50
2023-07-10T02:41:03.498Z,6.80
2023-07-10T02:43:29.987Z,5.97
2023-07-10T02:45:56.474Z,8.02
2023-07-10T02:48:22.941Z,8.43
2023-07-10T02:50:49.353Z,6.57
2023-07-10T02:53:15.811Z,7.68
2023-07-10T02:55:42.255Z,5.90
2023-07-10T02:58:08.737Z,7.05
2023-07-10T03:00:35.242Z,6.32
2023-07-10T03:03:01.926Z,6.65
2023-07-10T03:05:28.525Z,7.22
2023-07-10T03:07:55.007Z,7.22
2023-07-10T03:10:21.492Z,6.93
2023-07-10T03:12:47.935Z,6.82
2023-07-10T03:15:14.409Z,6.90
2023-07-10T03:17:40.869Z,6.78
2023-07-10T03:20:07.311Z,6.45
2023-07-10T03:22:33.773Z,7.43
2023-07-10T03:25:00.239Z,6.57
2023-07-10T03:27:26.710Z,6.15
2023-07-10T03:29:53.224Z,7.32
2023-07-10T03:32:19.735Z,9.70
2023-07-10T03:34:46.165Z,6.22
2023-07-10T03:37:12.640Z,8.43
2023-07-10T03:39:39.090Z,7.38
2023-07-10T03:42:05.581Z,6.75
2023-07-10T03:44:32.108Z,7.40
2023-07-10T03:46:58.604Z,7.40
2023-07-10T03:49:25.103Z,6.50
2023-07-10T03:51:51.570Z,5.25
2023-07-10T03:54:18.069Z,9.07
2023-07-10T03:56:44.530Z,7.25
2023-07-10T03:59:11.016Z,6.65
2023-07-10T04:01:37.505Z,7.10
2023-07-10T04:04:04.100Z,8.40
2023-07-10T04:06:30.704Z,5.80
2023-07-10T04:08:57.177Z,6.97
2023-07-10T04:11:23.647Z,5.78
2023-07-10T04:13:50.172Z,6.50
2023-07-10T04:16:16.644Z,4.28
2023-07-10T04:18:43.061Z,4.70
2023-07-10T04:21:09.534Z,6.13
2023-07-10T04:23:36.034Z,4.15
2023-07-10T04:26:02.890Z,4.28
2023-07-10T04:28:29.605Z,4.35
2023-07-10T04:30:56.114Z,3.95
2023-07-10T04:33:22.609Z,6.75
2023-07-10T04:35:49.074Z,4.05
2023-07-10T04:38:15.501Z,4.28
2023-07-10T04:40:41.957Z,4.57
2023-07-10T04:43:08.379Z,3.88
2023-07-10T04:45:34.855Z,3.88
2023-07-10T04:48:01.346Z,3.60
2023-07-10T04:50:27.780Z,3.05
2023-07-10T04:52:54.247Z,4.57
2023-07-10T04:55:20.660Z,4.97
2023-07-10T04:57:47.104Z,4.32
2023-07-10T05:00:13.585Z,4.05
2023-07-10T05:02:40.254Z,5.72
2023-07-10T05:05:07.376Z,4.15
2023-07-10T05:07:33.945Z,4.00
2023-07-10T05:10:00.441Z,3.90
2023-07-10T05:12:26.889Z,4.38
2023-07-10T05:14:53.374Z,3.50
2023-07-10T05:17:19.860Z,3.85
2023-07-10T05:19:46.294Z,6.78
2023-07-10T05:22:12.774Z,2.92
2023-07-10T05:24:39.260Z,4.07
2023-07-10T05:27:05.748Z,3.08
2023-07-10T05:29:32.237Z,3.38
2023-07-10T05:31:58.729Z,3.92
2023-07-10T05:34:25.219Z,3.13
2023-07-10T05:36:51.702Z,3.15
2023-07-10T05:39:18.173Z,3.13
2023-07-10T05:41:44.654Z,4.40
2023-07-10T05:44:11.131Z,2.50
2023-07-10T05:46:37.661Z,3.30
2023-07-10T05:49:04.344Z,3.72
2023-07-10T05:51:30.804Z,2.45
2023-07-10T05:53:57.228Z,3.88
2023-07-10T05:56:23.683Z,3.58
2023-07-10T05:58:50.134Z,3.20
2023-07-10T06:01:16.596Z,2.28
2023-07-10T06:03:43.102Z,3.47
2023-07-10T06:06:09.753Z,3.03
2023-07-10T06:08:36.407Z,3.95
2023-07-10T06:11:03.106Z,4.45
2023-07-10T06:13:29.752Z,4.35
2023-07-10T06:15:56.267Z,3.60
2023-07-10T06:18:22.781Z,4.68
2023-07-10T06:20:50.239Z,3.75
2023-07-10T06:23:16.805Z,4.20
2023-07-10T06:25:43.302Z,3.50
2023-07-10T06:28:09.762Z,3.70
2023-07-10T06:30:36.281Z,4.43
2023-07-10T06:33:02.855Z,4.13
2023-07-10T06:35:29.350Z,2.63
2023-07-10T06:37:55.864Z,2.30
2023-07-10T06:40:22.394Z,3.00
2023-07-10T06:42:48.867Z,4.68
2023-07-10T06:45:15.307Z,5.65
2023-07-10T06:47:41.760Z,2.42
2023-07-10T06:50:08.265Z,2.58
2023-07-10T06:52:34.744Z,2.63
2023-07-10T06:55:01.220Z,3.40
2023-07-10T06:57:27.687Z,3.70
2023-07-10T06:59:54.098Z,5.00
2023-07-10T07:02:20.596Z,1.65
2023-07-10T07:04:47.090Z,2.47
2023-07-10T07:07:13.601Z,2.50
2023-07-10T07:09:40.064Z,4.03
2023-07-10T07:12:06.566Z,2.97
2023-07-10T07:14:33.221Z,2.00
2023-07-10T07:16:59.759Z,2.67
2023-07-10T07:19:26.195Z,2.97
2023-07-10T07:21:52.659Z,2.83
2023-07-10T07:24:19.134Z,4.57
2023-07-10T07:26:45.615Z,2.17
2023-07-10T07:29:12.177Z,2.40
2023-07-10T07:31:38.618Z,4.60
2023-07-10T07:34:05.083Z,6.03
2023-07-10T07:36:31.549Z,4.43
2023-07-10T07:38:57.987Z,4.05
2023-07-10T07:41:24.472Z,3.13
2023-07-10T07:43:50.915Z,3.83
2023-07-10T07:46:17.381Z,2.38
2023-07-10T07:48:43.819Z,2.25
2023-07-10T07:51:10.265Z,3.65
2023-07-10T07:53:36.741Z,2.67
2023-07-10T07:56:03.653Z,2.90
2023-07-10T07:58:30.575Z,2.30
2023-07-10T08:00:57.052Z,3.55
2023-07-10T08:03:23.764Z,5.32
2023-07-10T08:05:50.331Z,2.63
2023-07-10T08:08:16.875Z,3.58
2023-07-10T08:10:43.349Z,3.13
2023-07-10T08:13:09.824Z,4.20
2023-07-10T08:15:36.351Z,3.13
2023-07-10T08:18:02.986Z,1.83
2023-07-10T08:20:29.503Z,1.90
2023-07-10T08:22:55.990Z,3.80
2023-07-10T08:25:22.484Z,2.15
2023-07-10T08:27:48.960Z,3.10
2023-07-10T08:30:15.445Z,3.78
2023-07-10T08:32:41.914Z,4.13
2023-07-10T08:35:08.478Z,3.22
2023-07-10T08:37:34.948Z,3.25
2023-07-10T08:40:01.432Z,3.58
2023-07-10T08:42:27.985Z,4.95
2023-07-10T08:44:54.514Z,2.05
2023-07-10T08:47:21.155Z,2.17
2023-07-10T08:49:47.698Z,3.80
2023-07-10T08:52:14.178Z,3.55
2023-07-10T08:54:40.673Z,3.17
2023-07-10T08:57:07.178Z,3.00
2023-07-10T08:59:33.823Z,2.83
2023-07-10T09:02:00.284Z,3.15
2023-07-10T09:04:26.909Z,3.03
2023-07-10T09:06:53.524Z,2.83
2023-07-10T09:09:20.000Z,1.88
2023-07-10T09:11:46.527Z,2.80
2023-07-10T09:14:13.199Z,3.38
2023-07-10T09:16:39.808Z,3.35
2023-07-10T09:19:08.820Z,3.97
2023-07-10T09:21:35.277Z,2.75
2023-07-10T09:24:01.792Z,5.93
2023-07-10T09:26:28.401Z,5.15
2023-07-10T09:28:54.818Z,2.45
2023-07-10T09:31:21.292Z,3.60
2023-07-10T09:33:47.804Z,2.17
2023-07-10T09:36:14.243Z,2.83
2023-07-10T09:38:40.717Z,4.43
2023-07-10T09:41:07.169Z,2.40
2023-07-10T09:43:33.803Z,4.57
2023-07-10T09:46:00.361Z,4.63
2023-07-10T09:48:26.850Z,3.65
2023-07-10T09:50:53.265Z,3.83
2023-07-10T09:53:19.765Z,2.95
2023-07-10T09:55:46.212Z,4.53
2023-07-10T09:58:12.624Z,4.50
2023-07-10T10:00:39.073Z,2.58
2023-07-10T10:03:06.662Z,3.70
2023-07-10T10:05:33.462Z,2.22
2023-07-10T10:08:00.087Z,2.28
2023-07-10T10:10:26.592Z,3.28
2023-07-10T10:12:53.035Z,2.40
2023-07-10T10:15:19.649Z,3.05
2023-07-10T10:17:46.233Z,2.33
2023-07-10T10:20:12.679Z,3.72
2023-07-10T10:22:39.115Z,1.92
2023-07-10T10:25:05.546Z,3.75
2023-07-10T10:27:32.274Z,2.47
2023-07-10T10:29:58.704Z,2.80
2023-07-10T10:32:25.147Z,4.72
2023-07-10T10:34:51.608Z,2.67
2023-07-10T10:37:18.023Z,4.15
2023-07-10T10:39:44.473Z,4.60
2023-07-10T10:42:10.917Z,3.80
2023-07-10T10:44:37.426Z,2.17
2023-07-10T10:47:03.958Z,2.70
2023-07-10T10:49:30.522Z,4.35
2023-07-10T10:51:56.995Z,3.97
2023-07-10T10:54:32.318Z,2.45
2023-07-10T10:57:00.644Z,2.28
2023-07-10T10:59:27.092Z,3.63
2023-07-10T11:01:53.579Z,1.98
2023-07-10T11:04:20.093Z,3.03
2023-07-10T11:06:46.613Z,3.03
2023-07-10T11:09:13.317Z,2.92
2023-07-10T11:11:39.810Z,3.08
2023-07-10T11:14:06.326Z,3.28
2023-07-10T11:16:32.862Z,3.85
2023-07-10T11:18:59.406Z,3.08
2023-07-10T11:21:25.891Z,3.92
2023-07-10T11:23:52.383Z,4.13
2023-07-10T11:26:18.903Z,4.35
2023-07-10T11:28:51.258Z,5.88
2023-07-10T11:31:28.577Z,3.90
2023-07-10T11:33:55.051Z,5.75
2023-07-10T11:36:21.539Z,3.33
2023-07-10T11:38:48.040Z,4.28
2023-07-10T11:41:14.526Z,3.88
2023-07-10T11:43:41.499Z,3.10
2023-07-10T11:46:08.075Z,3.10
2023-07-10T11:48:34.816Z,3.88
2023-07-10T11:51:01.306Z,3.17
2023-07-10T11:53:27.785Z,3.47
2023-07-10T11:55:54.234Z,4.13
2023-07-10T11:58:20.714Z,3.05
2023-07-10T12:00:47.201Z,2.40
2023-07-10T12:03:13.787Z,3.40
2023-07-10T12:05:40.291Z,5.22
2023-07-10T12:08:07.687Z,4.20
2023-07-10T12:10:34.315Z,3.67
2023-07-10T12:13:00.800Z,22.05
2023-07-10T12:15:27.229Z,7.15
2023-07-10T12:17:54.977Z,4.20
2023-07-10T12:20:21.632Z,3.33
2023-07-10T12:22:48.121Z,5.22
2023-07-10T12:25:14.600Z,9.00
2023-07-10T12:30:10.403Z,5.13
2023-07-10T12:32:36.828Z,3.33
2023-07-10T12:35:03.365Z,3.08
2023-07-10T12:37:29.797Z,3.58
2023-07-10T12:39:56.259Z,1.77
2023-07-10T12:42:22.735Z,5.03
2023-07-10T12:44:49.257Z,1.90
2023-07-10T12:47:15.795Z,2.90
2023-07-10T12:49:42.258Z,2.80
2023-07-10T12:52:08.702Z,3.17
2023-07-10T12:54:35.197Z,4.60
2023-07-10T12:57:01.617Z,4.53
2023-07-10T12:59:28.021Z,4.53
2023-07-10T13:01:55.638Z,3.70
2023-07-10T13:04:22.325Z,2.90
2023-07-10T13:06:48.767Z,2.20
2023-07-10T13:09:15.230Z,1.58
2023-07-10T13:11:42.814Z,2.40
2023-07-10T13:14:15.098Z,3.67
2023-07-10T13:16:42.029Z,5.03
2023-07-10T13:19:08.528Z,2.78
2023-07-10T13:21:34.976Z,2.83
2023-07-10T13:24:01.470Z,2.38
2023-07-10T13:26:27.928Z,2.35
2023-07-10T13:28:54.384Z,3.20
2023-07-10T13:31:20.868Z,2.17
2023-07-10T13:33:47.391Z,4.45
2023-07-10T13:36:13.877Z,1.73
2023-07-10T13:38:40.305Z,2.85
2023-07-10T13:41:06.779Z,2.03
2023-07-10T13:43:33.633Z,3.55
2023-07-10T13:46:00.285Z,2.85
2023-07-10T13:48:26.753Z,1.27
2023-07-10T13:50:53.274Z,3.15
2023-07-10T13:53:19.745Z,2.38
2023-07-10T13:55:46.213Z,2.97
2023-07-10T13:58:12.824Z,2.85
2023-07-10T14:00:39.325Z,3.42
2023-07-10T14:03:05.862Z,2.40
2023-07-10T14:05:32.565Z,2.83
2023-07-10T14:07:59.046Z,3.28
2023-07-10T14:10:25.548Z,3.92
2023-07-10T14:12:52.048Z,2.35
2023-07-10T14:15:18.534Z,2.13
2023-07-10T14:17:45.056Z,2.33
2023-07-10T14:20:11.519Z,2.10
2023-07-10T14:22:37.952Z,1.70
2023-07-10T14:25:04.889Z,3.10
2023-07-10T14:27:31.499Z,1.65
2023-07-10T14:29:57.957Z,1.20
2023-07-10T14:32:24.459Z,2.65
2023-07-10T14:34:50.905Z,3.20
2023-07-10T14:37:17.407Z,3.80
2023-07-10T14:39:43.912Z,3.85
2023-07-10T14:42:10.345Z,2.40
2023-07-10T14:44:36.794Z,1.90
2023-07-10T14:47:08.329Z,4.88
2023-07-10T14:49:35.174Z,3.58
2023-07-10T14:52:01.673Z,3.70
2023-07-10T14:54:28.167Z,2.95
2023-07-10T14:56:54.648Z,1.52
2023-07-10T14:59:21.146Z,1.90
2023-07-10T15:01:47.626Z,3.67
2023-07-10T15:04:14.144Z,1.85
2023-07-10T15:06:40.774Z,1.95
2023-07-10T15:09:07.218Z,2.17
2023-07-10T15:11:33.866Z,1.85
2023-07-10T15:14:00.322Z,3.40
2023-07-10T15:16:26.784Z,2.00
2023-07-10T15:18:53.421Z,2.72
2023-07-10T15:21:20.043Z,4.10
2023-07-10T15:23:46.514Z,2.60
2023-07-10T15:26:13.022Z,3.97
2023-07-10T15:28:39.472Z,2.75
2023-07-10T15:31:06.295Z,4.07
2023-07-10T15:33:33.296Z,2.78
2023-07-10T15:35:59.789Z,3.70
2023-07-10T15:38:26.307Z,2.90
2023-07-10T15:40:52.793Z,1.73
2023-07-10T15:43:19.302Z,2.25
2023-07-10T15:45:45.780Z,2.13
2023-07-10T15:48:12.332Z,1.90
2023-07-10T15:50:38.821Z,3.50
2023-07-10T15:53:05.313Z,2.78
2023-07-10T15:55:31.798Z,2.30
2023-07-10T15:57:58.251Z,2.72
2023-07-10T16:00:24.809Z,3.38
2023-07-10T16:02:51.405Z,2.15
2023-07-10T16:05:18.090Z,1.85
2023-07-10T16:07:44.550Z,2.78
2023-07-10T16:10:11.016Z,4.20
2023-07-10T16:12:37.540Z,3.40
2023-07-10T16:15:04.011Z,4.45
2023-07-10T16:17:30.530Z,2.25
2023-07-10T16:19:57.016Z,3.85
2023-07-10T16:22:23.497Z,3.83
2023-07-10T16:24:49.923Z,3.33
2023-07-10T16:27:16.341Z,2.78
2023-07-10T16:29:42.883Z,3.42
2023-07-10T16:32:09.345Z,2.33
2023-07-10T16:34:35.780Z,3.33
2023-07-10T16:37:02.493Z,1.50
2023-07-10T16:39:28.992Z,1.35
2023-07-10T16:41:55.503Z,3.15
2023-07-10T16:44:21.982Z,2.55
2023-07-10T16:46:48.439Z,3.97
2023-07-10T16:49:14.925Z,2.25
2023-07-10T16:51:41.407Z,2.55
2023-07-10T16:54:07.925Z,1.77
2023-07-10T16:56:34.365Z,2.15
2023-07-10T16:59:00.901Z,1.67
2023-07-10T17:01:27.459Z,2.60
2023-07-10T17:03:54.075Z,2.83
2023-07-10T17:06:20.750Z,2.47
2023-07-10T17:08:47.194Z,5.53
2023-07-10T17:11:13.674Z,3.08
2023-07-10T17:13:40.235Z,1.65
2023-07-10T17:16:06.753Z,2.20
2023-07-10T17:18:33.382Z,3.78
2023-07-10T17:20:59.815Z,2.08
2023-07-10T17:23:26.233Z,3.53
2023-07-10T17:25:52.705Z,3.00
2023-07-10T17:28:19.144Z,2.10
2023-07-10T17:30:45.627Z,0.93
2023-07-10T17:33:12.060Z,1.73
2023-07-10T17:35:38.533Z,1.80
2023-07-10T17:38:05.044Z,1.60
2023-07-10T17:40:31.484Z,1.70
2023-07-10T17:42:57.951Z,1.77
2023-07-10T17:45:24.397Z,1.70
2023-07-10T17:47:50.909Z,3.03
2023-07-10T17:50:17.484Z,1.23
2023-07-10T17:52:43.999Z,1.88
2023-07-10T17:55:10.476Z,2.67
2023-07-10T17:57:36.968Z,4.05
2023-07-10T18:00:03.659Z,2.22
2023-07-10T18:02:30.493Z,2.22
2023-07-10T18:04:56.915Z,1.52
2023-07-10T18:07:23.401Z,2.33
2023-07-10T18:09:49.873Z,1.40
2023-07-10T18:12:16.294Z,2.20
2023-07-10T18:14:42.777Z,2.58
2023-07-10T18:17:09.272Z,1.65
2023-07-10T18:19:35.701Z,2.05
2023-07-10T18:22:02.130Z,2.55
2023-07-10T18:24:28.765Z,1.88
2023-07-10T18:26:55.255Z,2.55
2023-07-10T18:29:21.722Z,3.47
2023-07-10T18:31:48.285Z,2.08
2023-07-10T18:34:14.915Z,2.03
2023-07-10T18:36:41.377Z,1.63
2023-07-10T18:39:07.788Z,2.40
2023-07-10T18:41:34.297Z,1.52
2023-07-10T18:44:00.781Z,2.03
2023-07-10T18:46:27.415Z,2.85
2023-07-10T18:48:53.958Z,2.40
2023-07-10T18:51:20.450Z,1.83
2023-07-10T18:53:46.890Z,2.90
2023-07-10T18:56:13.399Z,2.65
2023-07-10T18:58:39.877Z,2.03
2023-07-10T19:01:06.632Z,2.58
2023-07-10T19:03:33.346Z,1.67
2023-07-10T19:06:00.087Z,3.13
2023-07-10T19:08:26.548Z,2.05
2023-07-10T19:10:52.999Z,1.27
2023-07-10T19:13:19.448Z,1.95
2023-07-10T19:15:45.965Z,1.42
2023-07-10T19:18:12.480Z,2.20
2023-07-10T19:20:38.962Z,1.17
2023-07-10T19:23:05.397Z,2.28
2023-07-10T19:25:31.868Z,1.35
2023-07-10T19:27:58.360Z,1.25
2023-07-10T19:30:24.870Z,1.70
2023-07-10T19:32:51.417Z,2.08
2023-07-10T19:35:18.085Z,2.63
2023-07-10T19:37:44.675Z,2.63
2023-07-10T19:40:11.149Z,2.25
2023-07-10T19:42:37.640Z,2.15
2023-07-10T19:45:04.162Z,2.03
2023-07-10T19:47:30.699Z,2.83
2023-07-10T19:49:57.237Z,3.75
2023-07-10T19:52:23.717Z,1.67
2023-07-10T19:54:50.166Z,3.67
2023-07-10T19:57:16.676Z,2.08
2023-07-10T19:59:43.524Z,1.92
2023-07-10T20:02:10.126Z,1.40
2023-07-10T20:04:36.575Z,1.80
2023-07-10T20:07:03.012Z,2.03
2023-07-10T20:09:29.457Z,1.65
2023-07-10T20:11:55.937Z,2.03
2023-07-10T20:14:22.388Z,2.25
2023-07-10T20:16:48.918Z,2.08
2023-07-10T20:19:15.441Z,1.98
2023-07-10T20:21:41.865Z,2.63
2023-07-10T20:24:08.313Z,1.95
2023-07-10T20:26:34.790Z,3.03
2023-07-10T20:29:01.205Z,1.50
2023-07-10T20:31:27.758Z,3.85
2023-07-10T20:33:54.313Z,2.13
2023-07-10T20:36:20.788Z,3.70
2023-07-10T20:38:47.267Z,2.28
2023-07-10T20:41:13.766Z,2.92
2023-07-10T20:43:40.257Z,2.25
2023-07-10T20:46:06.975Z,3.35
2023-07-10T20:48:33.752Z,2.40
2023-07-10T20:51:00.388Z,1.42
2023-07-10T20:53:26.834Z,3.20
2023-07-10T20:55:53.297Z,1.77
2023-07-10T20:58:19.934Z,2.50
2023-07-10T21:00:46.399Z,2.60
2023-07-10T21:03:12.930Z,1.25
2023-07-10T21:05:39.466Z,2.10
2023-07-10T21:08:05.945Z,1.48
2023-07-10T21:10:32.719Z,1.27
2023-07-10T21:12:59.155Z,1.30
2023-07-10T21:15:25.602Z,3.28
2023-07-10T21:17:52.131Z,1.75
2023-07-10T21:20:18.620Z,1.70
2023-07-10T21:22:45.155Z,1.55
2023-07-10T21:25:11.658Z,1.60
2023-07-10T21:27:38.170Z,1.55
2023-07-10T21:30:04.795Z,2.40
2023-07-10T21:32:31.792Z,2.22
2023-07-10T21:34:58.254Z,2.17
2023-07-10T21:37:24.797Z,1.83
2023-07-10T21:39:51.240Z,3.08
2023-07-10T21:42:17.737Z,2.58
2023-07-10T21:44:44.229Z,2.13
2023-07-10T21:47:10.654Z,1.70
2023-07-10T21:49:37.129Z,2.45
2023-07-10T21:52:03.613Z,3.47
2023-07-10T21:54:30.385Z,2.55
2023-07-10T21:56:56.826Z,1.63
2023-07-10T21:59:23.299Z,2.63
2023-07-10T22:01:49.793Z,2.67
2023-07-10T22:04:16.256Z,2.83
2023-07-10T22:06:42.752Z,2.20
2023-07-10T22:09:09.248Z,3.35
2023-07-10T22:11:35.715Z,1.95
2023-07-10T22:14:02.239Z,2.40
2023-07-10T22:16:28.785Z,2.17
2023-07-10T22:18:55.308Z,2.47
2023-07-10T22:21:21.743Z,2.58
2023-07-10T22:23:48.199Z,2.25
2023-07-10T22:26:14.635Z,1.65
2023-07-10T22:28:41.132Z,1.30
2023-07-10T22:31:07.652Z,2.58
2023-07-10T22:33:34.177Z,1.45
2023-07-10T22:36:00.614Z,4.70
2023-07-10T22:38:27.041Z,2.25
2023-07-10T22:40:53.518Z,1.95
2023-07-10T22:43:20.024Z,3.38
2023-07-10T22:45:46.538Z,4.70
2023-07-10T22:48:13.026Z,3.88
2023-07-10T22:50:39.480Z,2.33
2023-07-10T22:53:05.937Z,2.78
2023-07-10T22:55:32.542Z,3.50
2023-07-10T22:57:59.032Z,2.88
2023-07-10T23:00:25.510Z,4.18
2023-07-10T23:02:52.101Z,3.03
2023-07-10T23:05:18.639Z,3.38
2023-07-10T23:07:45.057Z,1.98
2023-07-10T23:10:11.522Z,2.35
2023-07-10T23:12:37.958Z,2.38
2023-07-10T23:15:04.436Z,2.72
2023-07-10T23:17:31.005Z,3.10
2023-07-10T23:19:57.571Z,1.52
2023-07-10T23:22:24.066Z,2.35
2023-07-10T23:24:50.552Z,2.50
2023-07-10T23:27:17.011Z,3.35
2023-07-10T23:29:43.450Z,1.23
2023-07-10T23:32:09.929Z,3.55
2023-07-10T23:34:36.396Z,1.52
2023-07-10T23:37:02.903Z,2.80
2023-07-10T23:39:29.378Z,2.00
2023-07-10T23:41:55.829Z,1.88
2023-07-10T23:44:22.322Z,1.55
2023-07-10T23:46:48.830Z,1.90
2023-07-10T23:49:15.377Z,1.88
2023-07-10T23:51:41.801Z,3.03
2023-07-10T23:54:08.299Z,2.95
2023-07-10T23:56:34.839Z,2.25
2023-07-10T23:59:01.489Z,2.10
